Airfield :
LOGIN :

Register | Disclaimer

   EN    FR    IT 

 










Legend :    VFR   Marginal VFR   IFR   Intensive IFR   Very Intensive IFR
Visi :
Ceiling :
>= 8 km
>= 3000ft
5 to 8 km
1000 to 3000 ft
1500m to 5 km
500 to 1000 ft
800 to 1500m
200 to 500 ft
< 800m
< 200 ft
Symbols :   Thunderstorms  Fog  Heavy snow  Heavy precipitations  Wind > 20 kt
SIGMETs :     Misc.  Thunderstorms  Icing  Turbulence  Mountain Waves  Volcanic Ashes






- Airport Elevation : 55 ft
- IATA code : DSA


EGCN - Robin Hood Doncaster Sheffield

CURRENT METAR :
  • 061720Z 26010KT 9999 FEW024 BKN031 10/07 Q1000

EXPIRED METARs :
  • 061650Z 26010KT 9999 FEW020 BKN035 09/07 Q0999
  • 061620Z 27016KT 9999 SCT020 BKN032 10/07 Q0998
  • 061550Z 28016G26KT 9999 SCT024 BKN030 11/07 Q0998
  • 061520Z 26009KT 9999 SCT026 BKN032 11/07 Q0998
  • 061450Z 25009KT 9999 SCT026 SCT034 10/08 Q0998

TAF TAF EGCN
Valid from the 06 at 12:00 until the 07 at 12:00 UTC


061055Z 0612/0712 24010KT 9999 SCT025
TEMPO 0612/0617 7000 SHRA
PROB30
TEMPO 0612/0616 26017G27KT 4000 +SHRA



MET'MAP, your aeronautical weather chart ! - Copyright ORBIFLY December 2007 - Disclaimer

ORBIFLY MET'MAP TEAM :

Programming & Development : Alexandra Zaïnal
Concept & original design : Baudouin d'Aumeries
Assistance for programming : Marc-Olivier Méhu
Technical & hardware support : Manuel Goepfert

Contact : metmap@orbifly.com




SOURCES & CREDITS :

   NOAA